Time;durP1;ratioP1;P1;durP2;ratioP2;P2;SDS_P1;SDS_P2;PMS_P1;PMS_P2;Temp;Humidity;BMP_temperature;BMP_pressure;BME280_temperature;BME280_humidity;BME280_pressure;Samples;Min_cycle;Max_cycle;Signal;HPM_P1;HPM_P2
2022/12/10 00:01:48;;;;;;;36.03;23.20;;;;;;;5.54;79.65;99722.81;5019536;28;20648;-78
2022/12/10 00:04:16;;;;;;;38.50;24.92;;;;;;;5.81;79.33;99762.84;5032116;28;20138;-80
2022/12/10 00:06:51;;;;;;;35.85;23.20;;;;;;;5.14;79.80;99656.81;5022161;28;20055;-78
2022/12/10 00:09:21;;;;;;;35.20;23.58;;;;;;;5.87;79.37;99765.78;5021465;28;20049;-77
2022/12/10 00:11:51;;;;;;;36.80;23.27;;;;;;;5.46;79.78;99695.44;5001838;28;20045;-78
2022/12/10 00:14:18;;;;;;;36.80;23.45;;;;;;;5.96;79.29;99780.84;5000566;28;20079;-78
2022/12/10 00:16:45;;;;;;;33.10;21.45;;;;;;;6.03;79.69;99780.38;5000641;28;20052;-78
2022/12/10 00:19:13;;;;;;;26.88;19.88;;;;;;;5.81;78.93;99739.13;5003981;28;20040;-79
2022/12/10 00:21:44;;;;;;;29.95;20.30;;;;;;;6.00;78.58;99794.63;5023690;28;20062;-78
2022/12/10 00:24:11;;;;;;;30.52;20.90;;;;;;;5.69;79.11;99773.41;5018159;28;20228;-79
2022/12/10 00:26:39;;;;;;;30.00;20.25;;;;;;;6.11;78.69;99810.38;5001971;28;20092;-76
2022/12/10 00:29:09;;;;;;;27.65;20.05;;;;;;;5.74;78.40;99744.06;5013191;28;20108;-77
2022/12/10 00:31:37;;;;;;;29.77;20.00;;;;;;;6.12;79.74;99801.50;5013663;28;20467;-78
2022/12/10 00:34:07;;;;;;;28.65;20.42;;;;;;;6.19;78.07;99796.56;5019579;28;20741;-77
2022/12/10 00:36:44;;;;;;;29.42;19.23;;;;;;;6.08;77.54;99783.44;5001836;28;20107;-79
2022/12/10 00:39:16;;;;;;;30.40;21.10;;;;;;;6.15;77.82;99814.44;4983546;28;20467;-78
2022/12/10 00:41:43;;;;;;;34.50;20.60;;;;;;;5.83;78.54;99753.00;4983136;28;20050;-78
2022/12/10 00:44:10;;;;;;;31.58;19.98;;;;;;;6.18;78.03;99800.16;4980095;28;20148;-77
2022/12/10 00:46:40;;;;;;;32.13;20.00;;;;;;;6.08;77.51;99796.63;4981139;28;20415;-76
2022/12/10 00:49:13;;;;;;;30.02;19.50;;;;;;;6.17;77.31;99801.13;4996581;28;20045;-77
2022/12/10 00:51:40;;;;;;;31.52;20.13;;;;;;;6.02;77.72;99773.41;4978144;28;20470;-77
2022/12/10 00:54:07;;;;;;;31.80;19.77;;;;;;;6.09;77.29;99795.66;4995399;28;20432;-77
2022/12/10 00:56:36;;;;;;;35.33;20.85;;;;;;;5.97;77.74;99776.41;4996350;28;20506;-77
2022/12/10 00:59:03;;;;;;;33.28;21.27;;;;;;;6.07;77.66;99793.16;5008803;28;20065;-77
2022/12/10 01:01:33;;;;;;;33.28;22.38;;;;;;;5.63;78.14;99715.97;4998875;28;20243;-77
2022/12/10 01:04:05;;;;;;;34.60;21.45;;;;;;;6.16;77.71;99800.28;4997143;28;20306;-79
2022/12/10 01:06:35;;;;;;;32.13;21.17;;;;;;;4.57;77.62;99537.00;4995516;28;20505;-78
2022/12/10 01:09:06;;;;;;;30.08;19.92;;;;;;;6.17;76.63;99791.41;4996699;28;20525;-78
2022/12/10 01:11:38;;;;;;;36.42;21.83;;;;;;;6.10;76.82;99784.16;4997402;28;20053;-77
2022/12/10 01:14:08;;;;;;;34.85;21.88;;;;;;;5.91;76.81;99761.09;4980589;28;20076;-77
2022/12/10 01:16:35;;;;;;;32.58;21.00;;;;;;;6.14;77.65;99796.97;4994928;28;20076;-77
2022/12/10 01:19:03;;;;;;;37.65;21.33;;;;;;;6.06;77.03;99780.94;4996698;28;20590;-77
2022/12/10 01:21:32;;;;;;;32.75;20.45;;;;;;;6.07;77.83;99803.69;5001764;28;20049;-78
2022/12/10 01:23:59;;;;;;;36.33;20.90;;;;;;;6.16;77.84;99789.72;5001545;28;20044;-77
2022/12/10 01:26:31;;;;;;;33.10;21.20;;;;;;;6.07;78.10;99782.63;4999363;28;20049;-78
2022/12/10 01:28:59;;;;;;;32.08;21.20;;;;;;;6.10;78.01;99782.34;5016426;28;20134;-78
2022/12/10 01:31:29;;;;;;;33.90;20.88;;;;;;;6.03;77.57;99764.56;5016491;28;20060;-78
2022/12/10 01:34:00;;;;;;;33.22;21.30;;;;;;;6.16;77.56;99781.00;5017429;28;20045;-79
2022/12/10 01:36:35;;;;;;;31.45;19.95;;;;;;;6.14;77.11;99773.25;5017852;28;20045;-78
2022/12/10 01:39:04;;;;;;;31.80;20.83;;;;;;;6.08;77.00;99763.19;4998285;28;20444;-79
2022/12/10 01:41:35;;;;;;;28.63;20.23;;;;;;;6.22;77.18;99785.78;5018233;28;20505;-78
2022/12/10 01:44:25;;;;;;;31.02;20.58;;;;;;;6.17;76.60;99772.97;5018214;28;20134;-77
2022/12/10 01:46:54;;;;;;;33.15;20.63;;;;;;;6.14;76.87;99778.50;4997579;28;20063;-78
2022/12/10 01:49:28;;;;;;;30.92;20.83;;;;;;;6.23;77.43;99787.44;5015605;28;20517;-78
2022/12/10 01:51:58;;;;;;;29.38;20.48;;;;;;;6.23;76.84;99797.16;4998734;28;20124;-77
2022/12/10 01:54:38;;;;;;;30.10;20.85;;;;;;;5.84;77.32;99723.06;4997691;28;20053;-79
2022/12/10 01:57:09;;;;;;;28.08;18.05;;;;;;;6.31;76.31;99794.69;5013567;28;20063;-78
2022/12/10 01:59:38;;;;;;;31.90;19.92;;;;;;;6.13;77.16;99763.66;5015164;28;20259;-79
2022/12/10 02:02:23;;;;;;;30.15;18.75;;;;;;;6.39;76.45;99771.16;5014260;28;20057;-79
2022/12/10 02:05:02;;;;;;;31.33;19.88;;;;;;;5.87;76.58;99696.44;5007862;28;20159;-78
2022/12/10 02:07:35;;;;;;;29.95;19.65;;;;;;;6.29;77.04;99775.56;4976409;28;20050;-77
2022/12/10 02:10:36;;;;;;;28.67;19.05;;;;;;;5.91;76.94;99708.41;4977050;28;20101;-78
2022/12/10 02:13:11;;;;;;;29.75;18.55;;;;;;;5.95;76.55;99721.25;4976138;28;20053;-78
2022/12/10 02:16:26;;;;;;;27.00;18.55;;;;;;;6.00;76.48;99723.50;4977654;28;20056;-77
2022/12/10 02:18:57;;;;;;;28.67;19.45;;;;;;;6.30;76.99;99756.13;4957436;28;20133;-79
2022/12/10 02:21:33;;;;;;;30.60;19.33;;;;;;;5.97;77.10;99698.25;4974463;28;20045;-78
2022/12/10 02:24:08;;;;;;;31.48;19.98;;;;;;;6.38;77.19;99756.31;4976931;28;20046;-76
2022/12/10 02:27:15;;;;;;;29.90;18.45;;;;;;;6.47;76.37;99781.88;4975695;28;20073;-78
2022/12/10 02:29:45;;;;;;;31.70;19.00;;;;;;;6.32;76.78;99754.19;5013326;28;20052;-79
2022/12/10 02:32:18;;;;;;;31.73;19.63;;;;;;;6.49;76.80;99756.22;5006765;28;20053;-78
2022/12/10 02:34:52;;;;;;;25.48;17.38;;;;;;;4.84;75.57;99490.03;5010962;28;20060;-77
2022/12/10 02:37:27;;;;;;;32.20;19.15;;;;;;;6.48;75.72;99754.56;5011537;28;20545;-78
2022/12/10 02:39:57;;;;;;;26.05;16.42;;;;;;;5.95;76.15;99670.34;5012570;28;20549;-78
2022/12/10 02:42:28;;;;;;;29.38;17.92;;;;;;;6.37;75.58;99749.38;4997047;28;20428;-78
2022/12/10 02:44:57;;;;;;;31.30;18.58;;;;;;;6.31;75.81;99756.00;4994650;28;20049;-78
2022/12/10 02:47:25;;;;;;;26.85;17.92;;;;;;;6.34;76.40;99761.00;4995933;28;20049;-78
2022/12/10 02:49:56;;;;;;;30.75;17.67;;;;;;;6.41;76.60;99771.88;5011971;28;20758;-77
2022/12/10 02:52:24;;;;;;;25.20;18.10;;;;;;;6.35;76.45;99748.66;4994654;28;20189;-78
2022/12/10 02:54:52;;;;;;;28.20;18.30;;;;;;;6.43;75.82;99751.47;4997236;28;20205;-78
2022/12/10 02:57:54;;;;;;;26.27;17.63;;;;;;;6.18;75.97;99716.66;4993770;28;20487;-77
2022/12/10 03:00:23;;;;;;;28.97;18.50;;;;;;;6.38;76.89;99727.31;4992623;28;20064;-77
2022/12/10 03:03:15;;;;;;;28.10;18.35;;;;;;;6.49;76.28;99750.13;4992141;28;20355;-77
2022/12/10 03:06:14;;;;;;;27.88;16.58;;;;;;;6.47;76.10;99736.25;4975961;28;20060;-77
2022/12/10 03:08:57;;;;;;;29.30;17.45;;;;;;;6.02;75.27;99658.34;4993682;28;20049;-79
2022/12/10 03:11:24;;;;;;;;;;;;;;;6.42;75.38;99739.25;4978604;28;20061;-79
2022/12/10 03:14:04;;;;;;;26.50;17.95;;;;;;;6.42;76.93;99734.00;4980702;28;20276;-78
2022/12/10 03:16:49;;;;;;;29.60;18.65;;;;;;;6.37;76.94;99715.94;4983961;28;20185;-79
2022/12/10 03:19:23;;;;;;;28.08;17.13;;;;;;;6.46;76.02;99730.13;5000808;28;20057;-80
2022/12/10 03:21:55;;;;;;;25.02;16.45;;;;;;;6.49;75.53;99729.88;5012264;28;20624;-80
2022/12/10 03:24:22;;;;;;;31.60;18.27;;;;;;;6.38;75.92;99716.75;4995850;28;20081;-79
2022/12/10 03:26:50;;;;;;;31.00;18.05;;;;;;;5.41;75.86;99543.16;4992830;28;20079;-78
2022/12/10 03:29:21;;;;;;;26.85;16.85;;;;;;;6.30;75.63;99683.16;4995478;28;20084;-80
2022/12/10 03:31:50;;;;;;;28.23;18.25;;;;;;;6.40;75.52;99704.28;5012697;28;20052;-79
2022/12/10 03:34:17;;;;;;;26.00;17.15;;;;;;;6.48;75.15;99717.66;4995427;28;20269;-79
2022/12/10 03:36:44;;;;;;;26.83;17.73;;;;;;;5.79;75.59;99600.47;4991078;28;20154;-79
2022/12/10 03:39:12;;;;;;;30.73;18.50;;;;;;;6.47;76.05;99684.34;4980019;28;20053;-77
2022/12/10 03:41:42;;;;;;;28.00;17.77;;;;;;;5.96;75.81;99620.16;4988893;28;20057;-79
2022/12/10 03:44:08;;;;;;;24.75;16.38;;;;;;;6.37;75.91;99694.84;4992803;28;20734;-77
2022/12/10 03:46:36;;;;;;;28.27;18.38;;;;;;;6.33;76.38;99680.25;4993149;28;20048;-77
2022/12/10 03:49:03;;;;;;;26.25;16.52;;;;;;;6.45;76.09;99691.53;4990868;28;20041;-77
2022/12/10 03:51:30;;;;;;;31.20;18.83;;;;;;;6.26;75.78;99671.19;4972954;28;20588;-78
2022/12/10 03:53:57;;;;;;;26.85;17.92;;;;;;;6.51;75.33;99701.56;4973408;28;20776;-77
2022/12/10 03:56:24;;;;;;;25.42;16.60;;;;;;;6.39;75.87;99686.81;4971094;28;20057;-77
2022/12/10 03:58:51;;;;;;;27.08;16.75;;;;;;;5.92;75.76;99610.81;4983119;28;20055;-77
2022/12/10 04:01:17;;;;;;;26.98;17.98;;;;;;;6.30;75.45;99671.78;4992894;28;20525;-77
2022/12/10 04:03:44;;;;;;;25.17;16.90;;;;;;;6.39;75.29;99684.16;5008876;28;20260;-77
2022/12/10 04:06:15;;;;;;;30.05;18.10;;;;;;;6.38;76.20;99680.72;5014420;28;20308;-78
2022/12/10 04:08:41;;;;;;;26.75;17.33;;;;;;;6.42;76.10;99684.72;5019984;28;20294;-78
2022/12/10 04:11:12;;;;;;;28.17;18.48;;;;;;;6.42;75.80;99691.81;5011190;28;20452;-77
2022/12/10 04:16:29;;;;;;;26.10;17.02;;;;;;;6.41;75.79;99674.34;5013915;28;20692;-79
2022/12/10 04:19:07;;;;;;;31.35;17.45;;;;;;;6.44;75.59;99676.69;5013040;28;20509;-80
2022/12/10 04:27:22;;;;;;;25.67;16.27;;;;;;;6.44;74.31;99658.25;5000277;28;20061;-79
2022/12/10 04:29:49;;;;;;;26.70;16.90;;;;;;;6.11;74.93;99615.34;4998772;28;20122;-79
2022/12/10 04:32:17;;;;;;;25.35;16.90;;;;;;;6.33;75.25;99660.97;5020236;28;20470;-79
2022/12/10 04:34:43;;;;;;;28.88;17.58;;;;;;;6.42;75.48;99668.91;5000763;28;20426;-78
2022/12/10 04:37:11;;;;;;;29.70;18.38;;;;;;;6.24;75.23;99651.19;4999583;28;20151;-79
2022/12/10 04:39:38;;;;;;;27.30;16.92;;;;;;;6.26;75.40;99646.63;5015850;28;20053;-79
2022/12/10 04:42:06;;;;;;;30.42;17.90;;;;;;;6.24;75.62;99657.34;5000813;28;20374;-77
2022/12/10 04:44:35;;;;;;;26.48;17.77;;;;;;;6.35;76.08;99674.84;5000297;28;20479;-79
2022/12/10 04:47:12;;;;;;;23.83;16.85;;;;;;;6.39;74.83;99676.25;5018738;28;20513;-79
2022/12/10 04:49:39;;;;;;;27.98;18.58;;;;;;;6.28;75.39;99674.53;5035605;28;20136;-77
2022/12/10 04:52:07;;;;;;;29.52;17.65;;;;;;;6.16;76.13;99665.88;5015222;28;20050;-77
2022/12/10 04:54:34;;;;;;;28.17;18.17;;;;;;;6.05;76.02;99642.25;4984168;28;20049;-77
2022/12/10 04:57:06;;;;;;;27.80;17.65;;;;;;;6.02;76.28;99650.44;4981086;28;20128;-79
2022/12/10 04:59:32;;;;;;;27.00;17.23;;;;;;;6.03;76.44;99646.81;5012527;28;20490;-79
2022/12/10 05:02:02;;;;;;;26.90;16.83;;;;;;;5.68;75.89;99561.06;5015141;28;20540;-79
2022/12/10 05:04:31;;;;;;;28.33;18.15;;;;;;;6.30;75.73;99661.22;5015801;28;20262;-78
2022/12/10 05:06:57;;;;;;;24.20;16.20;;;;;;;6.29;75.80;99654.31;5032086;28;20413;-79
2022/12/10 05:09:24;;;;;;;26.00;16.77;;;;;;;6.15;75.29;99635.22;5032200;28;20071;-79
2022/12/10 05:11:51;;;;;;;32.60;18.42;;;;;;;5.98;75.40;99609.50;5014751;28;20380;-79
2022/12/10 05:14:18;;;;;;;30.48;17.88;;;;;;;6.19;76.50;99641.91;5031333;28;20369;-79
2022/12/10 05:16:49;;;;;;;22.63;17.00;;;;;;;6.11;75.55;99615.34;5014423;28;20059;-79
2022/12/10 05:19:23;;;;;;;25.25;17.83;;;;;;;5.82;76.05;99586.22;5006816;28;20067;-79
2022/12/10 05:24:37;;;;;;;26.23;17.55;;;;;;;5.82;76.32;99598.56;5017755;28;20053;-79
2022/12/10 05:27:05;;;;;;;28.50;17.40;;;;;;;5.50;76.06;99542.38;5018530;28;20060;-79
2022/12/10 05:29:32;;;;;;;28.67;18.83;;;;;;;5.92;76.50;99623.13;5004792;28;20053;-79
2022/12/10 05:31:59;;;;;;;27.13;17.80;;;;;;;6.00;76.01;99607.56;4999127;28;20083;-78
2022/12/10 05:34:28;;;;;;;26.92;17.42;;;;;;;5.32;75.52;99501.84;5002273;28;20473;-78
2022/12/10 05:36:55;;;;;;;30.20;19.27;;;;;;;6.04;76.66;99619.50;4998475;28;20041;-78
2022/12/10 05:39:26;;;;;;;30.55;19.38;;;;;;;5.91;76.34;99618.84;5001176;28;20644;-79
2022/12/10 05:41:55;;;;;;;27.40;19.17;;;;;;;6.15;76.28;99643.13;5018784;28;20083;-79
2022/12/10 05:44:22;;;;;;;32.97;21.23;;;;;;;6.11;76.64;99643.53;4999518;28;20052;-79
2022/12/10 05:46:52;;;;;;;30.38;19.90;;;;;;;5.97;76.71;99616.56;5015825;28;20053;-79
2022/12/10 05:49:18;;;;;;;30.38;19.17;;;;;;;6.06;76.21;99636.00;5000399;28;20649;-80
2022/12/10 05:51:45;;;;;;;31.65;19.80;;;;;;;5.94;76.18;99631.78;5017522;28;20056;-78
2022/12/10 05:54:17;;;;;;;30.52;20.30;;;;;;;5.74;76.37;99600.03;5000856;28;20056;-79
2022/12/10 05:56:44;;;;;;;28.77;20.52;;;;;;;5.75;77.35;99614.88;5013772;28;20060;-80
2022/12/10 05:59:11;;;;;;;30.25;20.42;;;;;;;5.82;76.90;99611.72;4999332;28;20056;-79
2022/12/10 06:01:42;;;;;;;30.53;19.17;;;;;;;6.06;76.72;99651.81;4996719;28;20403;-79
2022/12/10 06:04:09;;;;;;;28.75;19.38;;;;;;;5.94;77.30;99624.72;4999082;28;20088;-79
2022/12/10 06:06:37;;;;;;;32.53;19.38;;;;;;;6.12;77.02;99653.94;5001974;28;20041;-79
2022/12/10 06:09:07;;;;;;;27.60;17.80;;;;;;;6.26;76.75;99649.28;5017987;28;20052;-75
2022/12/10 06:11:34;;;;;;;28.13;18.70;;;;;;;6.03;75.97;99623.09;5000255;28;20227;-79
2022/12/10 06:14:02;;;;;;;30.92;20.52;;;;;;;6.13;76.05;99652.97;5016806;28;20426;-80
2022/12/10 06:16:29;;;;;;;29.02;18.70;;;;;;;6.03;76.45;99646.81;5003612;28;20410;-79
2022/12/10 06:18:57;;;;;;;25.95;17.95;;;;;;;6.07;76.51;99656.13;5019620;28;20049;-77
2022/12/10 06:21:26;;;;;;;28.73;18.73;;;;;;;6.09;76.54;99659.47;5023374;28;20711;-79
2022/12/10 06:23:53;;;;;;;28.38;19.00;;;;;;;6.03;77.09;99659.16;5034485;28;20048;-78
2022/12/10 06:26:23;;;;;;;27.55;17.67;;;;;;;5.86;76.58;99619.22;4999491;28;20213;-79
2022/12/10 06:28:51;;;;;;;27.00;18.23;;;;;;;5.85;76.50;99608.81;4998565;28;20044;-79
2022/12/10 06:31:19;;;;;;;30.20;18.98;;;;;;;6.13;77.05;99667.94;5000053;28;20053;-78
2022/12/10 06:33:46;;;;;;;29.00;19.00;;;;;;;6.18;77.04;99669.22;4997548;28;20445;-78
2022/12/10 06:36:16;;;;;;;27.73;17.88;;;;;;;6.18;76.27;99660.47;5000013;28;20366;-77
2022/12/10 06:38:44;;;;;;;22.58;17.48;;;;;;;6.09;76.20;99656.84;5020103;28;20057;-77
2022/12/10 06:41:17;;;;;;;26.13;18.17;;;;;;;6.23;76.14;99678.53;5017520;28;20128;-80
2022/12/10 06:43:44;;;;;;;26.60;17.13;;;;;;;6.20;75.70;99672.56;5024812;28;20130;-78
2022/12/10 06:46:13;;;;;;;29.30;18.33;;;;;;;6.01;76.08;99643.47;4997965;28;20060;-79
2022/12/10 06:48:43;;;;;;;27.35;16.75;;;;;;;6.04;76.10;99643.19;5010197;28;20587;-78
2022/12/10 06:51:12;;;;;;;28.40;18.20;;;;;;;4.69;76.04;99436.09;4997412;28;20045;-79
2022/12/10 06:53:39;;;;;;;27.83;18.40;;;;;;;6.15;76.30;99674.75;4996623;28;20049;-78
2022/12/10 06:56:07;;;;;;;24.40;17.23;;;;;;;6.12;75.51;99664.47;4995474;28;20049;-80
2022/12/10 06:58:35;;;;;;;25.27;16.65;;;;;;;6.02;76.41;99658.34;5004749;28;20075;-78
2022/12/10 07:01:11;;;;;;;24.83;17.58;;;;;;;6.15;75.80;99674.75;5001035;28;20048;-78
2022/12/10 07:03:40;;;;;;;25.10;16.70;;;;;;;6.15;75.72;99677.38;5000958;28;20083;-79
2022/12/10 07:06:10;;;;;;;25.17;17.17;;;;;;;6.10;76.46;99666.41;5018094;28;20048;-78
2022/12/10 07:08:37;;;;;;;24.50;16.33;;;;;;;6.06;75.82;99643.09;5015203;28;20094;-78
2022/12/10 07:11:08;;;;;;;25.95;17.80;;;;;;;6.24;75.49;99677.56;5002782;28;20530;-79
2022/12/10 07:13:39;;;;;;;21.67;16.42;;;;;;;6.07;75.39;99664.03;5002018;28;20562;-78
2022/12/10 07:16:28;;;;;;;25.58;16.90;;;;;;;5.99;75.90;99645.41;4998946;28;20242;-78
2022/12/10 07:18:57;;;;;;;25.38;17.73;;;;;;;6.17;75.72;99688.63;5001061;28;20245;-79
2022/12/10 07:21:35;;;;;;;23.85;16.77;;;;;;;6.07;76.09;99682.47;5002139;28;20048;-78
2022/12/10 07:24:13;;;;;;;22.65;16.95;;;;;;;6.13;75.74;99671.41;5003598;28;20674;-78
2022/12/10 07:26:43;;;;;;;23.55;17.10;;;;;;;6.15;75.65;99658.94;5017200;28;20041;-79
2022/12/10 07:29:15;;;;;;;28.15;18.13;;;;;;;6.20;75.83;99672.56;5015407;28;20530;-80
2022/12/10 07:31:41;;;;;;;24.60;15.90;;;;;;;6.24;75.93;99657.34;5012605;28;20506;-80
2022/12/10 07:34:12;;;;;;;29.88;18.33;;;;;;;6.11;75.64;99641.72;4995446;28;20049;-80
2022/12/10 07:36:39;;;;;;;26.25;18.48;;;;;;;6.10;76.35;99634.78;5014070;28;20049;-78
2022/12/10 07:39:16;;;;;;;26.73;19.65;;;;;;;5.99;76.07;99624.31;4998748;28;20401;-77
2022/12/10 07:41:51;;;;;;;27.88;19.02;;;;;;;6.13;76.02;99638.97;4996157;28;20199;-79
2022/12/10 07:44:24;;;;;;;33.30;19.63;;;;;;;6.12;76.25;99632.84;5014708;28;20056;-79
2022/12/10 07:46:52;;;;;;;31.55;19.98;;;;;;;6.09;76.60;99635.75;5010987;28;20045;-79
2022/12/10 07:49:20;;;;;;;27.55;19.63;;;;;;;5.99;76.70;99605.88;5011924;28;20045;-79
2022/12/10 07:51:48;;;;;;;28.40;19.50;;;;;;;6.35;76.15;99624.75;4996271;28;20057;-77
2022/12/10 07:54:19;;;;;;;25.70;19.33;;;;;;;6.41;75.95;99626.88;5017729;28;20060;-79
2022/12/10 07:56:46;;;;;;;32.20;20.95;;;;;;;6.46;75.51;99634.34;5023688;28;20076;-76
2022/12/10 07:59:13;;;;;;;28.77;20.13;;;;;;;6.18;75.72;99597.22;5015992;28;20150;-78
2022/12/10 08:01:40;;;;;;;29.15;20.00;;;;;;;6.31;75.80;99615.44;5019993;28;20048;-77
2022/12/10 08:04:07;;;;;;;35.28;19.05;;;;;;;6.16;74.93;99585.97;5033127;28;20087;-78
2022/12/10 08:06:34;;;;;;;29.20;20.45;;;;;;;6.56;75.40;99648.44;5018125;28;20842;-79
2022/12/10 08:09:02;;;;;;;33.58;22.55;;;;;;;6.55;75.97;99654.66;5016626;28;20076;-80
2022/12/10 08:11:28;;;;;;;28.58;20.67;;;;;;;6.53;75.15;99646.91;5020271;28;20053;-78
2022/12/10 08:13:56;;;;;;;32.03;21.70;;;;;;;6.35;75.73;99622.13;5030232;28;20569;-80
2022/12/10 08:16:26;;;;;;;33.15;21.50;;;;;;;6.61;75.44;99660.25;5000542;28;20492;-79
2022/12/10 08:18:55;;;;;;;40.40;21.88;;;;;;;5.63;74.99;99488.69;4999571;28;20163;-79
2022/12/10 08:21:24;;;;;;;33.63;22.73;;;;;;;6.57;75.46;99658.81;5002224;28;20045;-80
2022/12/10 08:23:50;;;;;;;34.35;21.58;;;;;;;6.54;74.73;99656.47;4999391;28;20541;-80
2022/12/10 08:26:22;;;;;;;40.00;23.95;;;;;;;5.99;75.13;99558.44;5001531;28;20072;-79
2022/12/10 08:28:50;;;;;;;34.53;20.90;;;;;;;6.70;75.40;99669.16;5001672;28;20139;-78
2022/12/10 08:31:18;;;;;;;32.90;22.30;;;;;;;6.67;75.28;99658.84;5001806;28;20053;-78
2022/12/10 08:33:45;;;;;;;30.73;21.55;;;;;;;6.74;74.91;99664.44;5003010;28;20045;-78
2022/12/10 08:36:17;;;;;;;36.13;23.48;;;;;;;6.38;74.84;99616.56;5001480;28;20574;-78
2022/12/10 08:38:45;;;;;;;30.93;22.30;;;;;;;6.18;75.53;99587.50;5000863;28;20049;-77
2022/12/10 08:41:18;;;;;;;29.75;21.40;;;;;;;6.61;74.77;99628.59;4997156;28;20307;-80
2022/12/10 08:43:48;;;;;;;31.98;23.02;;;;;;;6.58;74.67;99636.78;5024571;28;20169;-78
2022/12/10 08:46:15;;;;;;;33.10;22.98;;;;;;;6.09;75.15;99566.41;5006583;28;20057;-77
2022/12/10 08:48:43;;;;;;;36.53;24.20;;;;;;;6.66;74.44;99645.81;5003997;28;20145;-79
2022/12/10 08:51:13;;;;;;;33.03;23.30;;;;;;;6.75;74.46;99658.22;5002190;28;20081;-79
2022/12/10 08:53:40;;;;;;;39.38;24.67;;;;;;;6.69;74.86;99654.28;5004389;28;20045;-81
2022/12/10 08:56:07;;;;;;;34.53;23.70;;;;;;;6.79;74.00;99678.88;5002050;28;20455;-80
2022/12/10 08:58:35;;;;;;;42.08;25.75;;;;;;;5.93;75.14;99533.44;5002431;28;20056;-79
2022/12/10 09:01:13;;;;;;;39.25;25.98;;;;;;;6.72;75.10;99671.66;5002719;28;20041;-80
2022/12/10 09:03:45;;;;;;;44.63;27.77;;;;;;;6.40;75.07;99627.81;5003453;28;20057;-79
2022/12/10 09:06:15;;;;;;;40.72;27.75;;;;;;;6.55;75.47;99646.75;5001938;28;20052;-79
2022/12/10 09:08:42;;;;;;;40.83;27.08;;;;;;;6.25;74.47;99595.72;5001372;28;20053;-79
2022/12/10 09:11:14;;;;;;;46.10;29.25;;;;;;;6.76;75.94;99673.06;5002502;28;20063;-79
2022/12/10 09:13:42;;;;;;;46.03;30.25;;;;;;;6.80;76.19;99663.91;5000823;28;20056;-79
2022/12/10 09:16:09;;;;;;;51.75;32.55;;;;;;;6.93;75.15;99669.75;5000232;28;20049;-78
2022/12/10 09:18:42;;;;;;;54.83;31.27;;;;;;;6.94;74.65;99671.44;5019467;28;20072;-78
2022/12/10 09:21:12;;;;;;;;;;;;;;;6.84;75.08;99668.78;5002009;28;20049;-78
2022/12/10 09:23:42;;;;;;;48.28;27.63;;;;;;;6.96;74.97;99660.75;5003895;28;19928;-77
2022/12/10 09:26:13;;;;;;;44.80;29.20;;;;;;;6.91;75.24;99634.75;5004242;28;20056;-78
2022/12/10 09:28:40;;;;;;;48.53;33.67;;;;;;;7.00;74.99;99649.78;5003316;28;20514;-78
2022/12/10 09:31:09;;;;;;;50.17;32.08;;;;;;;6.63;75.56;99595.00;5022426;28;20217;-78
2022/12/10 09:33:46;;;;;;;46.38;31.63;;;;;;;6.77;74.66;99595.56;4984473;28;20530;-77
2022/12/10 09:36:16;;;;;;;52.10;33.63;;;;;;;7.06;75.10;99649.25;5001387;28;20143;-78
2022/12/10 09:38:45;;;;;;;53.17;34.95;;;;;;;6.95;75.38;99641.44;4982540;28;20053;-77
2022/12/10 09:41:46;;;;;;;61.45;34.30;;;;;;;6.95;75.95;99630.88;4998724;28;20064;-78
2022/12/10 09:44:35;;;;;;;50.97;34.15;;;;;;;6.97;74.64;99618.38;5002958;28;20049;-77
2022/12/10 09:47:08;;;;;;;56.50;35.00;;;;;;;7.00;75.03;99612.00;5003775;28;20466;-79
2022/12/10 09:50:06;;;;;;;50.60;33.97;;;;;;;7.16;74.39;99629.91;5015140;28;20705;-79
2022/12/10 09:52:45;;;;;;;53.65;33.35;;;;;;;7.12;74.56;99626.75;5004382;28;20053;-77
2022/12/10 09:55:16;;;;;;;54.72;35.55;;;;;;;7.07;74.22;99621.88;5018351;28;20091;-80
2022/12/10 09:57:47;;;;;;;53.78;33.95;;;;;;;6.48;74.67;99527.81;5001132;28;20045;-79
2022/12/10 10:00:23;;;;;;;50.75;34.42;;;;;;;6.96;75.27;99600.88;5019057;28;20485;-79
2022/12/10 10:02:51;;;;;;;54.78;34.88;;;;;;;6.96;75.37;99605.31;5016379;28;20092;-79
2022/12/10 10:05:29;;;;;;;54.05;34.80;;;;;;;6.75;75.83;99572.00;5001847;28;20691;-79
2022/12/10 10:08:03;;;;;;;51.60;35.28;;;;;;;6.92;76.11;99593.38;5000893;28;20044;-79
2022/12/10 10:10:38;;;;;;;54.90;36.80;;;;;;;6.69;75.99;99553.22;4992860;28;20049;-78
2022/12/10 10:13:14;;;;;;;55.63;35.20;;;;;;;7.03;75.06;99596.72;5015660;28;20076;-78
2022/12/10 10:15:43;;;;;;;52.53;35.03;;;;;;;6.73;75.34;99542.28;4986653;28;20801;-78
2022/12/10 10:18:16;;;;;;;55.38;35.35;;;;;;;6.84;75.30;99562.41;4994548;28;20223;-77
2022/12/10 10:20:43;;;;;;;59.33;37.50;;;;;;;6.91;74.73;99582.00;5001028;28;20490;-78
2022/12/10 10:23:14;;;;;;;58.00;36.80;;;;;;;6.83;75.52;99563.38;5008163;28;20068;-76
2022/12/10 10:25:45;;;;;;;57.97;37.25;;;;;;;6.75;75.83;99547.44;5009915;28;20045;-77
2022/12/10 10:28:16;;;;;;;55.95;35.88;;;;;;;6.95;76.40;99567.56;5014244;28;20061;-78
2022/12/10 10:30:44;;;;;;;52.78;34.92;;;;;;;6.96;76.88;99563.94;5031813;28;20041;-77
2022/12/10 10:33:14;;;;;;;52.13;34.80;;;;;;;7.03;75.71;99564.22;5028812;28;20057;-80
2022/12/10 10:35:48;;;;;;;49.25;34.67;;;;;;;6.99;76.32;99555.75;5015223;28;20242;-79
2022/12/10 10:38:23;;;;;;;50.03;33.03;;;;;;;7.02;76.50;99552.00;5031819;28;20231;-79
2022/12/10 10:40:59;;;;;;;50.03;33.08;;;;;;;6.98;76.82;99538.25;5018202;28;20144;-79
2022/12/10 10:43:41;;;;;;;52.25;34.33;;;;;;;7.05;77.59;99544.63;5015068;28;20049;-80
2022/12/10 10:46:22;;;;;;;59.05;36.47;;;;;;;6.92;77.76;99525.63;5019690;28;20526;-78
2022/12/10 10:48:50;;;;;;;55.33;35.03;;;;;;;6.46;77.69;99445.38;5001167;28;20052;-78
2022/12/10 10:51:23;;;;;;;56.03;35.33;;;;;;;7.07;77.72;99533.94;5016167;28;20068;-83
2022/12/10 10:53:52;;;;;;;56.90;35.72;;;;;;;6.98;77.79;99514.50;4998518;28;20057;-80
2022/12/10 10:56:22;;;;;;;57.70;37.03;;;;;;;7.12;77.82;99526.44;4997941;28;20590;-79
2022/12/10 10:59:00;;;;;;;58.22;36.92;;;;;;;6.97;77.53;99499.66;4996247;28;20055;-80
2022/12/10 11:01:55;;;;;;;53.85;34.63;;;;;;;7.16;77.06;99532.25;5012853;28;20059;-78
2022/12/10 11:04:45;;;;;;;57.65;35.80;;;;;;;7.01;76.52;99492.28;5010408;28;20320;-78
2022/12/10 11:07:34;;;;;;;61.97;38.92;;;;;;;7.26;76.42;99518.09;5013904;28;20063;-78
2022/12/10 11:10:15;;;;;;;61.15;38.17;;;;;;;6.52;76.15;99396.53;4999678;28;20476;-77
2022/12/10 11:12:45;;;;;;;57.20;38.65;;;;;;;7.12;76.25;99509.78;4999060;28;20065;-78
2022/12/10 11:15:24;;;;;;;63.75;39.08;;;;;;;7.08;77.40;99509.22;4999159;28;20110;-78
2022/12/10 11:17:55;;;;;;;56.53;37.17;;;;;;;6.82;77.46;99470.22;4991180;28;20076;-77
2022/12/10 11:20:23;;;;;;;68.05;39.40;;;;;;;7.12;77.62;99501.84;5000050;28;20502;-78
2022/12/10 11:23:11;;;;;;;61.47;37.47;;;;;;;7.05;76.76;99489.22;4999334;28;20142;-77
2022/12/10 11:26:05;;;;;;;57.30;37.28;;;;;;;6.98;77.30;99480.19;5014444;28;20056;-76
2022/12/10 11:28:37;;;;;;;58.17;36.05;;;;;;;6.24;78.10;99361.28;4991373;28;20161;-80
2022/12/10 11:31:06;;;;;;;61.22;37.80;;;;;;;7.09;78.85;99488.91;5010150;28;20471;-80
2022/12/10 11:33:47;;;;;;;61.05;39.63;;;;;;;7.17;78.46;99489.91;5005876;28;20044;-79
2022/12/10 11:36:42;;;;;;;56.47;36.92;;;;;;;7.27;77.61;99487.25;5021852;28;20110;-77
2022/12/10 11:39:46;;;;;;;58.55;37.00;;;;;;;7.28;77.36;99484.47;5005760;28;20056;-77
2022/12/10 11:42:25;;;;;;;59.75;36.85;;;;;;;7.09;77.59;99466.03;5021100;28;20060;-76
2022/12/10 11:45:18;;;;;;;50.30;32.90;;;;;;;7.13;78.24;99461.28;5028878;28;20420;-77
2022/12/10 11:47:48;;;;;;;59.80;36.30;;;;;;;6.19;77.53;99307.22;5036788;28;20155;-76
2022/12/10 11:50:40;;;;;;;56.70;34.40;;;;;;;7.21;77.64;99462.25;5019468;28;20756;-78
2022/12/10 11:53:32;;;;;;;61.92;37.03;;;;;;;7.03;77.90;99446.28;5031517;28;20071;-79
2022/12/10 11:56:05;;;;;;;59.80;38.00;;;;;;;7.18;77.88;99462.50;5021037;28;20497;-79
2022/12/10 11:58:53;;;;;;;62.03;37.63;;;;;;;7.16;78.49;99463.63;5019123;28;20333;-79
2022/12/10 12:01:30;;;;;;;63.10;39.80;;;;;;;7.20;78.72;99460.56;5015483;28;20550;-79